Time;durP1;ratioP1;P1;durP2;ratioP2;P2;SDS_P1;SDS_P2;PMS_P1;PMS_P2;Temp;Humidity;BMP_temperature;BMP_pressure;BME280_temperature;BME280_humidity;BME280_pressure;Samples;Min_cycle;Max_cycle;Signal;HPM_P1;HPM_P2
2022/10/10 00:01:51;;;;;;;;;16.33;16.33;;;;;7.54;100.00;100571.25;6306983;20;3555637;-49
2022/10/10 00:04:19;;;;;;;;;16.00;16.00;;;;;7.46;100.00;100568.84;6275427;20;2822266;-49
2022/10/10 00:06:46;;;;;;;;;20.00;14.50;;;;;7.52;100.00;100573.97;6271984;20;2494215;-50
2022/10/10 00:09:15;;;;;;;;;22.00;17.00;;;;;7.55;100.00;100573.00;6279297;20;3553713;-52
2022/10/10 00:11:43;;;;;;;;;31.00;22.00;;;;;7.44;100.00;100568.03;6311955;20;2494025;-52
2022/10/10 00:14:11;;;;;;;;;47.50;38.50;;;;;7.31;100.00;100562.22;6282827;20;2860715;-50
2022/10/10 00:16:41;;;;;;;;;76.33;57.00;;;;;7.45;100.00;100567.09;6282246;20;3636715;-52
2022/10/10 00:19:11;;;;;;;;;65.67;51.33;;;;;7.68;100.00;100558.25;6314096;20;3620053;-52
2022/10/10 00:21:40;;;;;;;;;54.67;44.00;;;;;7.46;100.00;100568.84;6309407;20;2858705;-52
2022/10/10 00:24:10;;;;;;;;;62.00;45.67;;;;;7.37;100.00;100566.47;6314582;20;3614834;-52
2022/10/10 00:26:39;;;;;;;;;36.33;31.00;;;;;7.24;100.00;100566.91;6315785;20;3599917;-53
2022/10/10 00:29:06;;;;;;;;;19.00;15.00;;;;;7.45;100.00;100567.97;6283128;20;2491931;-52
2022/10/10 00:31:35;;;;;;;;;16.00;14.67;;;;;7.31;100.00;100553.34;6284264;20;3535703;-51
2022/10/10 00:34:04;;;;;;;;;15.00;14.00;;;;;7.25;100.00;100552.63;6314501;20;3530491;-53
2022/10/10 00:36:32;;;;;;;;;15.00;13.67;;;;;7.56;100.00;100550.69;6280368;20;2800378;-48
2022/10/10 00:39:01;;;;;;;;;15.00;11.67;;;;;7.22;100.00;100552.72;6314329;20;2803513;-52
2022/10/10 00:41:29;;;;;;;;;11.00;11.00;;;;;7.08;100.00;100546.97;6311962;20;2786884;-51
2022/10/10 00:44:10;;;;;;;;;19.00;14.00;;;;;7.02;100.00;100539.16;6312285;20;3542981;-53
2022/10/10 00:46:39;;;;;;;;;14.67;12.33;;;;;6.90;100.00;100528.88;6280657;20;2791965;-50
2022/10/10 00:49:25;;;;;;;;;12.50;12.50;;;;;6.99;100.00;100536.59;6313980;20;2802911;-50
2022/10/10 00:51:58;;;;;;;;;19.00;17.67;;;;;7.02;100.00;100534.69;6276947;20;3557659;-52
2022/10/10 00:54:28;;;;;;;;;17.33;13.00;;;;;6.92;100.00;100533.25;6276299;20;3537791;-48
2022/10/10 00:57:10;;;;;;;;;18.50;15.00;;;;;6.91;100.00;100535.97;6277309;20;2820615;-53
2022/10/10 00:59:41;;;;;;;;;28.00;24.00;;;;;6.73;100.00;100535.66;6276698;20;2500368;-51
2022/10/10 01:02:09;;;;;;;;;24.00;20.00;;;;;7.04;100.00;100529.31;6278019;20;2480515;-48
2022/10/10 01:04:43;;;;;;;;;22.00;17.00;;;;;6.86;100.00;100530.78;6281522;20;2500247;-53
2022/10/10 01:07:27;;;;;;;;;20.00;16.00;;;;;6.86;100.00;100522.78;6279179;20;3556486;-53
2022/10/10 01:10:03;;;;;;;;;19.67;15.00;;;;;6.96;100.00;100534.03;6281069;20;3548197;-52
2022/10/10 01:12:50;;;;;;;;;15.33;14.00;;;;;6.96;100.00;100528.69;6309529;20;2797278;-52
2022/10/10 01:16:06;;;;;;;;;12.67;10.67;;;;;6.68;100.00;100529.59;6311958;20;2787810;-51
2022/10/10 01:19:21;;;;;;;;;14.67;13.00;;;;;6.73;100.00;100529.44;6304912;20;2811830;-52
2022/10/10 01:22:33;;;;;;;;;12.67;12.00;;;;;6.57;100.00;100523.72;6307316;20;2794086;-48
2022/10/10 01:26:01;;;;;;;;;21.67;18.67;;;;;6.36;100.00;100522.59;6308210;20;3559653;-51
2022/10/10 01:28:46;;;;;;;;;25.00;22.50;;;;;6.64;100.00;100525.28;6276777;20;2840989;-48
2022/10/10 01:31:21;;;;;;;;;19.00;14.00;;;;;6.50;100.00;100530.16;6279550;20;2814968;-53
2022/10/10 01:34:19;;;;;;;;;12.67;12.67;;;;;6.68;100.00;100528.72;6280521;20;2791939;-52
2022/10/10 01:37:39;;;;;;;;;16.50;10.50;;;;;6.55;100.00;100526.44;6310909;20;2822248;-49
2022/10/10 01:40:41;;;;;;;;;15.50;14.00;;;;;6.52;100.00;100517.66;6281960;20;2798259;-47
2022/10/10 01:43:11;;;;;;;;;14.00;14.00;;;;;6.55;100.00;100520.22;6279231;20;2811769;-49
2022/10/10 01:45:52;;;;;;;;;15.67;13.67;;;;;6.57;100.00;100523.72;6276941;20;2802488;-49
2022/10/10 01:48:30;;;;;;;;;14.00;14.00;;;;;6.57;100.00;100515.72;6333381;20;2808644;-50
2022/10/10 01:51:28;;;;;;;;;15.00;13.50;;;;;6.15;100.00;100519.66;6280463;20;2788950;-50
2022/10/10 01:54:24;;;;;;;;;16.33;14.33;;;;;6.49;100.00;100517.75;6280690;20;2800419;-49
2022/10/10 01:57:19;;;;;;;;;17.00;15.00;;;;;6.63;100.00;100519.97;6309161;20;2831514;-50
2022/10/10 02:00:18;;;;;;;;;39.67;28.33;;;;;6.12;100.00;100513.56;6279775;20;2861841;-49
2022/10/10 02:03:08;;;;;;;;;40.33;33.67;;;;;6.32;100.00;100511.16;6307619;20;3624428;-52
2022/10/10 02:06:03;;;;;;;;;44.00;37.50;;;;;5.99;100.00;100509.50;6302357;20;2842753;-52
2022/10/10 02:08:41;;;;;;;;;57.00;42.00;;;;;5.60;100.00;100507.91;6272074;20;2873362;-52
2022/10/10 02:11:12;;;;;;;;;35.50;24.50;;;;;5.45;100.00;100511.88;6304593;20;2864855;-52
2022/10/10 02:14:18;;;;;;;;;32.00;25.50;;;;;5.41;100.00;100509.34;6271379;20;2849274;-51
2022/10/10 02:16:50;;;;;;;;;28.00;24.00;;;;;5.38;100.00;100520.94;6270861;20;2494211;-52
2022/10/10 02:19:22;;;;;;;;;35.00;31.33;;;;;5.75;100.00;100519.91;6274150;20;3604576;-50
2022/10/10 02:21:52;;;;;;;;;49.00;38.50;;;;;5.63;100.00;100520.25;6306153;20;2849251;-53
2022/10/10 02:24:23;;;;;;;;;27.50;23.50;;;;;5.81;100.00;100525.06;6278178;20;2848303;-53
2022/10/10 02:27:08;;;;;;;;;39.67;32.33;;;;;5.72;100.00;100512.88;6275567;20;2865970;-50
2022/10/10 02:29:42;;;;;;;;;30.00;29.50;;;;;5.81;100.00;100519.75;6310341;20;2847275;-53
2022/10/10 02:32:39;;;;;;;;;44.67;34.33;;;;;5.71;100.00;100518.25;6276056;20;3628345;-51
2022/10/10 02:35:22;;;;;;;;;29.50;25.50;;;;;5.76;100.00;100519.00;6309942;20;2841300;-49
2022/10/10 02:37:54;;;;;;;;;32.00;26.00;;;;;5.61;100.00;100511.44;6278300;20;2853405;-49
2022/10/10 02:40:28;;;;;;;;;31.00;27.67;;;;;5.38;100.00;100507.63;6278154;20;2848163;-51
2022/10/10 02:43:02;;;;;;;;;38.50;32.50;;;;;5.33;100.00;100511.34;6311377;20;2854632;-48
2022/10/10 02:45:32;;;;;;;;;29.00;25.50;;;;;5.06;100.00;100512.00;6277925;20;2844082;-51
2022/10/10 02:48:01;;;;;;;;;26.00;23.50;;;;;5.07;100.00;100505.75;6278499;20;2846120;-50
2022/10/10 02:50:31;;;;;;;;;26.50;26.50;;;;;4.97;100.00;100504.25;6275943;20;2848302;-49
2022/10/10 02:53:00;;;;;;;;;28.00;22.50;;;;;5.80;100.00;100511.81;6276942;20;2840957;-52
2022/10/10 02:55:29;;;;;;;;;18.00;17.00;;;;;5.62;100.00;100510.53;6280085;20;3556524;-53
2022/10/10 02:57:57;;;;;;;;;21.33;20.00;;;;;5.81;100.00;100508.22;6278072;20;3575267;-48
2022/10/10 03:00:25;;;;;;;;;11.00;11.00;;;;;5.65;100.00;100507.78;6284459;20;2796246;-48
2022/10/10 03:02:54;;;;;;;;;22.33;15.67;;;;;5.64;100.00;100512.22;6279738;20;3555561;-52
2022/10/10 03:05:22;;;;;;;;;15.00;15.00;;;;;5.26;100.00;100511.47;6277771;20;3539849;-51
2022/10/10 03:07:51;;;;;;;;;18.00;17.00;;;;;5.63;100.00;100512.25;6307782;20;3548201;-53
2022/10/10 03:10:19;;;;;;;;;29.50;21.50;;;;;5.26;100.00;100513.25;6279090;20;2854456;-53
2022/10/10 03:12:47;;;;;;;;;29.50;23.00;;;;;5.56;100.00;100514.25;6279264;20;2841945;-53
2022/10/10 03:15:16;;;;;;;;;26.00;25.00;;;;;5.37;100.00;100508.56;6276807;20;2500815;-54
2022/10/10 03:17:44;;;;;;;;;22.50;17.00;;;;;5.46;100.00;100518.94;6276159;20;2500498;-50
2022/10/10 03:20:12;;;;;;;;;21.67;19.33;;;;;5.29;100.00;100515.84;6278074;20;3562732;-52
2022/10/10 03:22:40;;;;;;;;;23.50;20.00;;;;;5.14;100.00;100508.28;6274191;20;2500376;-48
2022/10/10 03:25:09;;;;;;;;;24.33;18.67;;;;;5.49;100.00;100508.19;6279470;20;3559635;-50
2022/10/10 03:27:37;;;;;;;;;25.67;16.00;;;;;4.96;100.00;100512.28;6280784;20;3578426;-49
2022/10/10 03:30:06;;;;;;;;;17.00;17.00;;;;;4.84;100.00;100505.47;6279016;20;2822244;-51
2022/10/10 03:32:34;;;;;;;;;22.50;18.00;;;;;4.69;100.00;100505.88;6275388;20;2500372;-52
2022/10/10 03:35:03;;;;;;;;;20.00;16.00;;;;;4.76;100.00;100502.13;6277962;20;3561720;-51
2022/10/10 03:37:31;;;;;;;;;22.00;16.00;;;;;4.53;100.00;100508.00;6279965;20;2818016;-48
2022/10/10 03:39:59;;;;;;;;;24.33;15.33;;;;;4.74;100.00;100490.63;6280328;20;3561754;-55
2022/10/10 03:42:28;;;;;;;;;14.67;14.67;;;;;4.73;100.00;100496.88;6280024;20;3530515;-55
2022/10/10 03:44:56;;;;;;;;;16.67;14.00;;;;;4.76;100.00;100499.47;6305630;20;2808738;-56
2022/10/10 03:47:25;;;;;;;;;19.67;16.33;;;;;5.19;100.00;100514.38;6306115;20;3545220;-54
2022/10/10 03:49:57;;;;;;;;;17.67;15.33;;;;;5.15;100.00;100505.56;6307629;20;3553486;-55
2022/10/10 03:52:25;;;;;;;;;16.00;14.33;;;;;5.03;100.00;100503.25;6301135;20;2813979;-49
2022/10/10 03:54:53;;;;;;;;;18.00;17.00;;;;;4.91;100.00;100496.44;6305190;20;2811736;-51
2022/10/10 03:57:21;;;;;;;;;22.00;18.00;;;;;4.63;100.00;100485.59;6280021;20;2825390;-56
2022/10/10 03:59:49;;;;;;;;;16.33;14.33;;;;;4.57;100.00;100504.38;6279386;20;3549232;-56
2022/10/10 04:02:18;;;;;;;;;15.67;15.00;;;;;4.30;100.00;100500.56;6310015;20;2807769;-55
2022/10/10 04:04:46;;;;;;;;;17.00;13.00;;;;;4.72;100.00;100497.81;6310091;20;2823242;-57
2022/10/10 04:07:15;;;;;;;;;13.00;11.00;;;;;4.67;100.00;100503.25;6301395;20;2808634;-56
2022/10/10 04:09:44;;;;;;;;;12.67;12.67;;;;;4.75;100.00;100495.94;6278446;20;3537768;-55
2022/10/10 04:12:13;;;;;;;;;17.40;13.60;;;;;4.92;100.00;100498.16;6333455;20;2817078;-53
2022/10/10 04:14:43;;;;;;;;;21.20;13.20;;;;;4.71;100.00;100496.03;6303951;20;2800359;-49
2022/10/10 04:17:11;;;;;;;;;16.00;15.00;;;;;5.21;100.00;100502.75;6277210;20;2675291;-49
2022/10/10 04:19:39;;;;;;;;;13.00;13.00;;;;;4.62;100.00;100492.69;6277035;20;2783646;-49
2022/10/10 04:22:09;;;;;;;;;16.00;12.40;;;;;4.72;100.00;100501.34;6333097;20;2800779;-53
2022/10/10 04:24:37;;;;;;;;;23.50;17.00;;;;;4.99;100.00;100502.44;6276882;20;2818018;-51
2022/10/10 04:27:05;;;;;;;;;18.50;15.00;;;;;4.60;100.00;100499.84;6276561;20;2808642;-52
2022/10/10 04:29:34;;;;;;;;;22.00;18.00;;;;;4.84;100.00;100492.16;6279341;20;3558577;-53
2022/10/10 04:32:02;;;;;;;;;20.67;16.33;;;;;4.85;100.00;100493.94;6278459;20;3560644;-50
2022/10/10 04:34:31;;;;;;;;;22.67;17.00;;;;;4.66;100.00;100492.63;6274129;20;3551315;-49
2022/10/10 04:36:59;;;;;;;;;20.50;17.00;;;;;4.24;100.00;100495.38;6275791;20;2832626;-50
2022/10/10 04:39:27;;;;;;;;;20.33;15.67;;;;;4.60;100.00;100478.56;6274812;20;3553378;-49
2022/10/10 04:41:55;;;;;;;;;26.50;20.00;;;;;4.14;100.00;100484.97;6310200;20;2837805;-50
2022/10/10 04:44:23;;;;;;;;;26.00;24.00;;;;;4.02;100.00;100489.66;6273770;20;2500277;-49
2022/10/10 04:46:52;;;;;;;;;19.00;16.33;;;;;3.95;100.00;100486.28;6275401;20;3561734;-56
2022/10/10 04:49:20;;;;;;;;;33.00;25.50;;;;;4.58;100.00;100485.72;6304893;20;2500622;-57
2022/10/10 04:51:49;;;;;;;;;31.67;27.00;;;;;4.44;100.00;100495.78;6272592;20;2865139;-60
2022/10/10 04:54:17;;;;;;;;;26.00;18.50;;;;;4.64;100.00;100497.13;6307084;20;2834689;-54
2022/10/10 04:56:45;;;;;;;;;18.67;16.33;;;;;4.68;100.00;100488.16;6279478;20;3563789;-56
2022/10/10 04:59:14;;;;;;;;;22.00;18.33;;;;;4.52;100.00;100490.31;6307704;20;3557615;-55
2022/10/10 05:01:43;;;;;;;;;22.33;17.00;;;;;4.35;100.00;100490.72;6310755;20;3542948;-54
2022/10/10 05:04:13;;;;;;;;;26.33;20.33;;;;;4.20;100.00;100488.41;6279503;20;3585660;-55
2022/10/10 05:06:43;;;;;;;;;121.25;90.75;;;;;4.10;100.00;100493.91;6280544;20;3709716;-55
2022/10/10 05:09:13;;;;;;;;;86.00;61.33;;;;;4.27;100.00;100490.00;6315290;20;3651303;-56
2022/10/10 05:11:42;;;;;;;;;96.33;68.33;;;;;4.58;100.00;100495.47;6278860;20;3674192;-56
2022/10/10 05:14:12;;;;;;;;;84.00;58.33;;;;;4.76;100.00;100489.69;6281633;20;3648201;-56
2022/10/10 05:16:41;;;;;;;;;64.33;48.67;;;;;4.71;100.00;100491.59;6280266;20;3635765;-56
2022/10/10 05:19:11;;;;;;;;;69.00;50.33;;;;;4.65;100.00;100496.19;6312863;20;3652357;-55
2022/10/10 05:21:40;;;;;;;;;74.67;52.67;;;;;4.69;100.00;100492.56;6313541;20;3645443;-55
2022/10/10 05:24:10;;;;;;;;;63.67;49.00;;;;;4.82;100.00;100491.34;6313492;20;2877648;-56
2022/10/10 05:26:38;;;;;;;;;44.50;38.00;;;;;5.23;100.00;100497.38;6314193;20;2841967;-56
2022/10/10 05:29:11;;;;;;;;;58.33;44.67;;;;;5.06;100.00;100504.03;6284075;20;2864858;-57
2022/10/10 05:31:40;;;;;;;;;37.00;30.00;;;;;5.34;100.00;100500.63;6312671;20;2854455;-57
2022/10/10 05:34:13;;;;;;;;;22.33;15.33;;;;;5.53;100.00;100506.34;6281082;20;3569055;-55
2022/10/10 05:36:42;;;;;;;;;16.00;10.50;;;;;5.58;100.00;100506.19;6309322;20;2795182;-57
2022/10/10 05:39:10;;;;;;;;;17.00;13.00;;;;;5.54;100.00;100509.88;6276796;20;3554448;-57
2022/10/10 05:41:38;;;;;;;;;25.50;15.50;;;;;5.39;100.00;100506.69;6311735;20;2837838;-55
2022/10/10 05:44:08;;;;;;;;;39.33;31.00;;;;;5.33;100.00;100512.19;6280752;20;2868115;-56
2022/10/10 05:46:38;;;;;;;;;56.33;43.00;;;;;5.46;100.00;100512.75;6307426;20;2873294;-54
2022/10/10 05:49:07;;;;;;;;;38.33;31.00;;;;;5.56;100.00;100513.38;6312059;20;2869165;-58
2022/10/10 05:51:36;;;;;;;;;28.33;22.67;;;;;5.54;100.00;100516.06;6310019;20;3593992;-55
2022/10/10 05:54:04;;;;;;;;;16.00;13.50;;;;;5.59;100.00;100518.63;6283447;20;2814920;-57
2022/10/10 05:56:32;;;;;;;;;20.00;14.00;;;;;5.81;100.00;100517.06;6281664;20;2816916;-56
2022/10/10 05:59:01;;;;;;;;;18.67;13.67;;;;;5.99;100.00;100512.19;6280130;20;3554425;-54
2022/10/10 06:01:30;;;;;;;;;22.33;15.00;;;;;6.25;100.00;100520.25;6309302;20;3555553;-55
2022/10/10 06:03:58;;;;;;;;;19.00;14.00;;;;;6.28;100.00;100520.16;6280499;20;3550291;-57
2022/10/10 06:06:26;;;;;;;;;14.50;12.00;;;;;6.55;100.00;100523.75;6316012;20;2792044;-56
2022/10/10 06:08:55;;;;;;;;;19.67;16.33;;;;;6.97;100.00;100525.09;6280711;20;3571091;-55
2022/10/10 06:11:24;;;;;;;;;22.33;15.67;;;;;7.16;100.00;100528.91;6270254;20;3551328;-56
2022/10/10 06:13:53;;;;;;;;;14.50;12.00;;;;;7.52;100.00;100512.50;6310588;20;2787829;-56
2022/10/10 06:16:26;;;;;;;;;20.00;17.67;;;;;7.57;99.70;100515.88;6282916;20;3578401;-55
2022/10/10 06:18:56;;;;;;;;;25.00;25.00;;;;;7.94;98.80;100519.03;6282880;20;2848363;-56
2022/10/10 06:21:24;;;;;;;;;26.00;19.50;;;;;8.14;98.23;100519.16;6278247;20;2498356;-55
2022/10/10 06:23:53;;;;;;;;;15.33;13.33;;;;;8.60;93.94;100524.53;6283375;20;3532567;-57
2022/10/10 06:26:21;;;;;;;;;16.00;12.00;;;;;8.70;93.74;100520.56;6304916;20;2789888;-57
2022/10/10 06:28:49;;;;;;;;;14.00;12.50;;;;;8.93;92.98;100522.31;6286156;20;2796184;-55
2022/10/10 06:31:17;;;;;;;;;13.00;11.00;;;;;9.14;93.16;100521.41;6278450;20;2788058;-57
2022/10/10 06:33:46;;;;;;;;;29.00;26.50;;;;;9.40;91.13;100525.66;6277280;20;2835721;-59
2022/10/10 06:36:16;;;;;;;;;18.33;17.33;;;;;9.64;89.81;100520.16;6278119;20;3559732;-52
2022/10/10 06:38:45;;;;;;;;;18.50;14.00;;;;;10.00;89.59;100527.47;6285352;20;2800309;-51
2022/10/10 06:41:14;;;;;;;;;14.33;13.67;;;;;10.67;85.53;100534.22;6277588;20;3541014;-51
2022/10/10 06:43:43;;;;;;;;;10.00;10.00;;;;;14.02;74.17;100540.91;6312713;20;2783622;-51
2022/10/10 06:46:12;;;;;;;;;18.00;16.00;;;;;16.37;63.02;100549.56;6310341;20;3547174;-51
2022/10/10 06:48:40;;;;;;;;;13.00;13.00;;;;;15.99;62.51;100543.22;6281058;20;2803484;-54
2022/10/10 06:51:15;;;;;;;;;15.33;13.00;;;;;15.87;64.07;100544.06;6278244;20;3518134;-54
2022/10/10 06:53:44;;;;;;;;;10.00;9.67;;;;;14.19;67.30;100540.72;6310204;20;3502448;-58
2022/10/10 06:56:19;;;;;;;;;13.33;10.00;;;;;12.54;76.54;100534.38;6310872;20;2781669;-57
2022/10/10 06:58:55;;;;;;;;;12.00;12.00;;;;;12.37;76.71;100543.38;6311398;20;2786860;-56
2022/10/10 07:01:25;;;;;;;;;10.80;9.40;;;;;11.99;78.90;100528.34;6333688;20;2783613;-56
2022/10/10 07:03:54;;;;;;;;;9.33;9.00;;;;;11.68;80.62;100528.22;6278623;20;2757794;-57
2022/10/10 07:06:22;;;;;;;;;11.00;10.00;;;;;12.11;78.75;100526.81;6306125;20;2788814;-58
2022/10/10 07:08:50;;;;;;;;;14.00;10.00;;;;;12.49;77.25;100532.78;6277065;20;2794129;-56
2022/10/10 07:11:17;;;;;;;;;12.00;9.00;;;;;12.28;78.49;100534.84;6283969;20;2780460;-60
2022/10/10 07:13:45;;;;;;;;;5.00;5.00;;;;;12.37;75.80;100536.16;6281320;20;2748328;-59
2022/10/10 07:16:13;;;;;;;;;6.00;6.00;;;;;12.60;75.26;100540.25;6282166;20;2734672;-59
2022/10/10 07:18:40;;;;;;;;;4.50;4.50;;;;;12.51;74.43;100541.66;6278162;20;2747284;-59
2022/10/10 07:21:09;;;;;;;;;5.00;5.00;;;;;12.98;72.96;100539.91;6280363;20;2746129;-59
2022/10/10 07:23:40;;;;;;;;;7.00;5.25;;;;;13.08;73.41;100537.53;6301049;20;1810742;-59
2022/10/10 07:26:19;;;;;;;;;7.00;6.00;;;;;13.15;72.03;100538.94;6355334;20;3451345;-59
2022/10/10 07:28:48;;;;;;;;;5.00;5.00;;;;;13.43;70.96;100534.59;6315274;20;2741964;-59
2022/10/10 07:31:16;;;;;;;;;8.50;7.50;;;;;13.54;71.59;100545.66;6281668;20;2744113;-59
2022/10/10 07:33:48;;;;;;;;;8.00;6.00;;;;;13.90;72.11;100534.44;6281002;20;2742139;-59
2022/10/10 07:36:18;;;;;;;;;7.00;5.50;;;;;13.42;71.44;100535.59;6284177;20;2748228;-59
2022/10/10 07:38:50;;;;;;;;;6.00;6.00;;;;;14.02;69.95;100543.59;6286217;20;2744043;-59
2022/10/10 07:41:20;;;;;;;;;5.50;5.00;;;;;14.11;69.33;100536.75;6283568;20;2745203;-59
2022/10/10 07:43:53;;;;;;;;;6.00;5.00;;;;;14.00;68.77;100532.03;6276270;20;2752359;-60
2022/10/10 07:46:20;;;;;;;;;8.00;6.50;;;;;14.01;68.18;100533.78;6282399;20;2735765;-59
2022/10/10 07:48:50;;;;;;;;;11.20;8.80;;;;;14.06;68.37;100537.06;6307240;20;2768215;-60
2022/10/10 07:51:18;;;;;;;;;5.00;5.00;;;;;14.14;67.58;100528.44;6281921;20;2748316;-59
2022/10/10 07:53:45;;;;;;;;;7.00;5.00;;;;;14.30;67.37;100533.75;6282817;20;2748229;-59
2022/10/10 07:56:13;;;;;;;;;5.50;4.50;;;;;14.49;67.36;100537.88;6281803;20;2747322;-59
2022/10/10 07:58:41;;;;;;;;;6.00;5.00;;;;;14.42;65.74;100536.53;6282320;20;2745079;-60
2022/10/10 08:01:11;;;;;;;;;6.00;4.00;;;;;14.05;66.96;100538.00;6282642;20;2748362;-59
2022/10/10 08:03:40;;;;;;;;;6.50;6.00;;;;;14.28;67.44;100532.03;6282597;20;2740117;-59
2022/10/10 08:06:13;;;;;;;;;6.00;6.00;;;;;14.88;66.37;100539.00;6280822;20;2739875;-59
2022/10/10 08:08:43;;;;;;;;;8.50;6.00;;;;;14.49;66.70;100528.94;6283832;20;2739890;-59
2022/10/10 08:11:20;;;;;;;;;4.00;4.00;;;;;14.38;66.51;100528.75;6280461;20;2747165;-59
2022/10/10 08:13:49;;;;;;;;;4.00;4.00;;;;;14.05;66.54;100538.00;6286535;20;2751327;-58
2022/10/10 08:16:19;;;;;;;;;3.00;3.00;;;;;14.55;66.44;100535.81;6282543;20;2739874;-59
2022/10/10 08:18:47;;;;;;;;;5.00;3.00;;;;;14.15;65.63;100536.47;6284078;20;2751348;-59
2022/10/10 08:21:15;;;;;;;;;7.00;4.50;;;;;14.35;65.49;100534.31;6285749;20;2747291;-58
2022/10/10 08:23:43;;;;;;;;;6.50;5.00;;;;;14.19;65.92;100532.63;6283349;20;2750337;-59
2022/10/10 08:26:15;;;;;;;;;5.00;4.00;;;;;14.70;65.99;100532.97;6274407;20;2742060;-59
2022/10/10 08:28:44;;;;;;;;;4.00;4.00;;;;;14.80;65.46;100521.56;6279047;20;2748282;-59
2022/10/10 08:31:20;;;;;;;;;6.50;5.00;;;;;15.00;64.67;100525.63;6287253;20;2738862;-59
2022/10/10 08:33:50;;;;;;;;;10.67;8.00;;;;;14.79;65.55;100517.09;6282904;20;3483643;-59
2022/10/10 08:36:22;;;;;;;;;5.00;5.00;;;;;14.45;66.61;100519.25;6319791;20;2747159;-59
2022/10/10 08:38:56;;;;;;;;;7.00;5.00;;;;;14.80;64.70;100514.31;6290264;20;2745233;-59
2022/10/10 08:42:00;;;;;;;;;10.33;10.33;;;;;14.86;65.81;100507.63;6285133;20;2791978;-59
2022/10/10 08:44:47;;;;;;;;;10.20;10.20;;;;;14.92;64.63;100518.03;6339508;20;2786779;-59
2022/10/10 08:47:35;;;;;;;;;11.00;8.00;;;;;15.28;65.25;100519.25;6284928;20;2767998;-60
2022/10/10 08:50:23;;;;;;;;;10.33;10.33;;;;;15.59;64.05;100513.47;6312038;20;3510700;-59
2022/10/10 08:53:07;;;;;;;;;5.00;5.00;;;;;15.50;63.72;100519.50;6318150;20;2748223;-59
2022/10/10 08:55:45;;;;;;;;;7.14;5.43;;;;;15.83;63.33;100510.06;6325927;20;3453423;-58
2022/10/10 08:58:46;;;;;;;;;4.00;4.00;;;;;15.33;62.10;100509.84;6317527;20;2745062;-59
2022/10/10 09:01:23;;;;;;;;;4.00;4.00;;;;;15.55;63.84;100511.06;6286672;20;2734772;-59
2022/10/10 09:04:00;;;;;;;;;5.00;4.00;;;;;15.98;61.07;100510.78;6284789;20;2749831;-59
2022/10/10 09:07:00;;;;;;;;;5.00;5.00;;;;;16.01;62.78;100510.59;6288725;20;2748348;-59
2022/10/10 09:10:11;;;;;;;;;10.50;10.50;;;;;15.92;61.26;100505.81;6290212;20;2776437;-59
2022/10/10 09:13:09;;;;;;;;;10.50;8.50;;;;;16.07;62.11;100506.59;6287330;20;2769191;-59
2022/10/10 09:15:57;;;;;;;;;3.00;3.00;;;;;16.07;62.13;100506.59;6287758;20;2752506;-59
2022/10/10 09:19:32;;;;;;;;;3.00;3.00;;;;;15.99;61.25;100505.28;6290863;20;2753402;-59
2022/10/10 09:22:24;;;;;;;;;16.00;16.00;;;;;16.48;61.15;100505.41;6307945;20;2822178;-59
2022/10/10 09:25:18;;;;;;;;;26.00;23.50;;;;;16.71;60.20;100506.44;6310474;20;2852377;-60
2022/10/10 09:28:23;;;;;;;;;3.00;3.00;;;;;16.63;58.58;100504.31;6286113;20;2755530;-59
2022/10/10 09:30:56;;;;;;;;;5.00;3.50;;;;;16.59;58.29;100508.25;6286757;20;2744080;-59
2022/10/10 09:33:45;;;;;;;;;11.20;9.00;;;;;16.51;60.33;100484.41;6311159;20;2778491;-59
2022/10/10 09:36:22;;;;;;;;;6.00;6.00;;;;;16.40;59.38;100490.59;6285874;20;2733645;-48
2022/10/10 09:38:58;;;;;;;;;4.00;4.00;;;;;16.54;58.93;100488.72;6284509;20;2749298;-49
2022/10/10 09:41:42;;;;;;;;;3.00;3.00;;;;;16.41;59.77;100489.63;6284798;20;2736749;-48
2022/10/10 09:44:13;;;;;;;;;3.50;3.50;;;;;16.33;57.75;100478.47;6287369;20;2755556;-53
2022/10/10 09:46:41;;;;;;;;;5.00;3.50;;;;;16.59;59.91;100478.41;6282181;20;2752456;-51
2022/10/10 09:49:16;;;;;;;;;4.00;4.00;;;;;16.75;59.01;100462.72;6285819;20;2748207;-47
2022/10/10 09:51:47;;;;;;;;;4.00;3.80;;;;;17.34;57.17;100479.03;6309380;20;2750403;-49
2022/10/10 09:54:18;;;;;;;;;3.00;3.00;;;;;17.23;57.41;100481.72;6315516;20;2749277;-46
2022/10/10 09:56:56;;;;;;;;;4.00;4.00;;;;;16.93;57.98;100471.38;6285792;20;2753991;-51
2022/10/10 09:59:45;;;;;;;;;5.00;5.00;;;;;17.21;58.13;100478.25;6287593;20;2748250;-50
2022/10/10 10:02:25;;;;;;;;;3.00;3.00;;;;;17.38;57.64;100479.69;6285738;20;2752370;-51
2022/10/10 10:04:54;;;;;;;;;4.50;4.00;;;;;17.39;57.57;100480.53;6284847;20;2744109;-53
2022/10/10 10:07:35;;;;;;;;;6.00;4.00;;;;;17.20;57.32;100473.81;6284030;20;2743113;-49
2022/10/10 10:10:34;;;;;;;;;11.00;11.00;;;;;17.39;57.64;100470.53;6284740;20;2789895;-50
2022/10/10 10:13:02;;;;;;;;;6.00;5.00;;;;;17.48;56.76;100467.13;6282282;20;2748314;-49
2022/10/10 10:15:32;;;;;;;;;19.67;17.33;;;;;17.10;55.96;100464.66;6281836;20;3569096;-51
2022/10/10 10:18:29;;;;;;;;;4.00;3.00;;;;;17.31;55.18;100463.00;6282732;20;2747287;-50
2022/10/10 10:21:06;;;;;;;;;1.00;1.00;;;;;17.51;56.67;100463.31;6286422;20;2737810;-46
2022/10/10 10:23:55;;;;;;;;;4.00;4.00;;;;;17.65;55.79;100464.94;6287461;20;2748633;-47
2022/10/10 10:26:46;;;;;;;;;9.00;7.50;;;;;16.99;57.66;100461.88;6285330;20;2746139;-49
2022/10/10 10:29:32;;;;;;;;;6.00;4.00;;;;;17.58;57.08;100463.69;6288239;20;2751360;-46
2022/10/10 10:32:27;;;;;;;;;3.00;3.00;;;;;17.73;54.51;100467.91;6286942;20;2752417;-48
2022/10/10 10:35:11;;;;;;;;;6.00;6.00;;;;;17.83;55.29;100463.50;6285581;20;2735717;-53
2022/10/10 10:38:05;;;;;;;;;4.00;4.00;;;;;17.82;55.26;100450.03;6284366;20;2748203;-53
2022/10/10 10:40:48;;;;;;;;;5.50;4.00;;;;;18.30;52.67;100449.78;6282778;20;2752380;-51
2022/10/10 10:43:38;;;;;;;;;6.50;4.00;;;;;18.02;54.34;100445.72;6305418;20;1918073;-52
2022/10/10 10:46:56;;;;;;;;;7.50;7.50;;;;;18.37;56.65;100441.00;6312958;20;2748263;-50
2022/10/10 10:49:51;;;;;;;;;8.00;8.00;;;;;18.42;53.74;100448.78;6308200;20;2739875;-52
2022/10/10 10:53:02;;;;;;;;;6.80;6.80;;;;;18.26;53.71;100442.88;6339286;20;2737460;-59
2022/10/10 10:55:36;;;;;;;;;7.00;6.00;;;;;18.02;55.61;100435.72;6336167;20;2729611;-58
2022/10/10 10:58:31;;;;;;;;;14.00;13.00;;;;;18.01;54.50;100436.72;6313578;20;3513825;-60
2022/10/10 11:02:08;;;;;;;;;4.20;3.80;;;;;17.89;53.07;100434.97;6337399;20;2748219;-61
2022/10/10 11:05:03;;;;;;;;;4.67;4.67;;;;;17.93;50.92;100426.47;6279705;20;2748200;-59
2022/10/10 11:08:25;;;;;;;;;12.67;10.00;;;;;17.72;52.33;100434.44;6311486;20;3508631;-59
2022/10/10 11:11:27;;;;;;;;;8.20;7.40;;;;;18.18;52.64;100428.06;6337267;20;2731536;-58
2022/10/10 11:14:35;;;;;;;;;6.00;6.00;;;;;18.07;52.69;100430.78;6338739;20;2736746;-59
2022/10/10 11:17:42;;;;;;;;;8.20;8.20;;;;;18.19;53.17;100420.75;6334528;20;2733626;-58
2022/10/10 11:20:42;;;;;;;;;6.20;6.00;;;;;18.42;52.49;100414.28;6334318;20;2732657;-58
2022/10/10 11:23:24;;;;;;;;;2.00;2.00;;;;;18.30;50.24;100418.03;6311784;20;2743019;-58
2022/10/10 11:26:07;;;;;;;;;6.60;5.80;;;;;18.03;50.37;100410.25;6336443;20;2732709;-58
2022/10/10 11:29:02;;;;;;;;;13.67;11.00;;;;;17.96;52.07;100406.34;6310174;20;3512762;-58
2022/10/10 11:31:59;;;;;;;;;7.00;7.00;;;;;17.93;52.90;100403.84;6334584;20;2735829;-58
2022/10/10 11:34:41;;;;;;;;;6.00;6.00;;;;;18.18;52.71;100400.88;6309185;20;2745134;-59
2022/10/10 11:37:28;;;;;;;;;4.00;3.00;;;;;18.25;51.13;100398.53;6309555;20;2739864;-58
2022/10/10 11:40:04;;;;;;;;;3.33;3.33;;;;;18.44;50.84;100392.41;6309992;20;2751458;-59
2022/10/10 11:43:07;;;;;;;;;5.00;3.80;;;;;18.46;51.59;100385.00;6339479;20;2754455;-59